createdAt,value
2022-12-27T00:00:34.659Z,64.85
2022-12-27T00:03:17.706Z,66.20
2022-12-27T00:06:01.277Z,70.57
2022-12-27T00:08:43.866Z,64.75
2022-12-27T00:11:29.953Z,64.40
2022-12-27T00:14:18.084Z,74.03
2022-12-27T00:17:07.589Z,65.13
2022-12-27T00:20:00.547Z,66.45
2022-12-27T00:22:46.736Z,67.40
2022-12-27T00:25:34.921Z,61.72
2022-12-27T00:28:16.255Z,66.90
2022-12-27T00:31:03.041Z,62.35
2022-12-27T00:33:44.056Z,64.00
2022-12-27T00:36:27.089Z,61.58
2022-12-27T00:39:16.959Z,61.30
2022-12-27T00:42:07.575Z,58.65
2022-12-27T00:44:54.079Z,58.50
2022-12-27T00:47:41.634Z,55.65
2022-12-27T00:50:24.749Z,57.13
2022-12-27T00:53:15.285Z,69.88
2022-12-27T00:55:59.394Z,59.97
2022-12-27T00:58:41.953Z,57.47
2022-12-27T01:01:29.611Z,43.50
2022-12-27T01:04:11.227Z,52.50
2022-12-27T01:06:53.948Z,54.38
2022-12-27T01:09:37.793Z,57.10
2022-12-27T01:12:21.998Z,52.58
2022-12-27T01:15:24.886Z,63.70
2022-12-27T01:18:03.142Z,58.00
2022-12-27T01:20:40.756Z,64.40
2022-12-27T01:23:30.373Z,63.28
2022-12-27T01:26:20.128Z,54.28
2022-12-27T01:28:58.458Z,56.92
2022-12-27T01:31:31.573Z,51.33
2022-12-27T01:34:12.772Z,52.65
2022-12-27T01:36:58.464Z,54.25
2022-12-27T01:39:40.829Z,58.75
2022-12-27T01:42:41.577Z,57.75
2022-12-27T01:45:33.202Z,57.58
2022-12-27T01:48:18.003Z,57.47
2022-12-27T01:51:02.258Z,53.60
2022-12-27T01:53:43.119Z,56.55
2022-12-27T01:56:24.463Z,52.33
2022-12-27T01:59:10.619Z,49.05
2022-12-27T02:02:01.799Z,48.08
2022-12-27T02:04:42.329Z,53.00
2022-12-27T02:07:24.234Z,53.78
2022-12-27T02:10:07.843Z,52.30
2022-12-27T02:12:41.093Z,48.83
2022-12-27T02:15:28.432Z,50.50
2022-12-27T02:18:09.079Z,45.67
2022-12-27T02:21:12.329Z,47.08
2022-12-27T02:24:13.619Z,49.35
2022-12-27T02:27:09.790Z,48.58
2022-12-27T02:29:54.111Z,56.67
2022-12-27T02:32:39.924Z,55.03
2022-12-27T02:35:29.069Z,57.08
2022-12-27T02:38:18.335Z,55.85
2022-12-27T02:41:09.198Z,62.17
2022-12-27T02:44:03.515Z,59.90
2022-12-27T02:46:59.929Z,59.25
2022-12-27T02:50:00.606Z,57.65
2022-12-27T02:53:09.557Z,56.35
2022-12-27T02:56:43.255Z,61.42
2022-12-27T03:00:05.999Z,54.80
2022-12-27T03:03:26.745Z,53.55
2022-12-27T03:06:58.534Z,53.92
2022-12-27T03:10:22.119Z,51.80
2022-12-27T03:13:38.665Z,50.72
2022-12-27T03:16:45.888Z,49.55
2022-12-27T03:20:00.345Z,47.53
2022-12-27T03:22:58.446Z,43.25
2022-12-27T03:25:42.505Z,35.08
2022-12-27T03:28:45.560Z,35.22
2022-12-27T03:31:47.839Z,35.75
2022-12-27T03:34:32.291Z,34.40
2022-12-27T03:37:34.789Z,37.55
2022-12-27T03:40:33.894Z,34.47
2022-12-27T03:43:19.436Z,34.55
2022-12-27T03:46:34.173Z,31.27
2022-12-27T03:49:31.810Z,29.83
2022-12-27T03:52:34.065Z,33.72
2022-12-27T03:55:18.483Z,32.15
2022-12-27T03:57:48.807Z,27.70
2022-12-27T04:00:27.562Z,28.13
2022-12-27T04:03:08.632Z,24.65
2022-12-27T04:05:52.287Z,19.95
2022-12-27T04:08:50.513Z,16.45
2022-12-27T04:11:41.284Z,10.68
2022-12-27T04:14:42.252Z,7.65
2022-12-27T04:17:36.333Z,6.97
2022-12-27T04:20:41.656Z,5.47
2022-12-27T04:23:38.383Z,4.22
2022-12-27T04:26:32.718Z,4.63
2022-12-27T04:32:28.654Z,4.75
2022-12-27T04:35:09.660Z,4.35
2022-12-27T04:37:52.694Z,4.43
2022-12-27T04:40:49.258Z,4.25
2022-12-27T04:43:56.597Z,4.15
2022-12-27T04:46:51.146Z,4.85
2022-12-27T04:49:45.121Z,4.22
2022-12-27T04:52:47.013Z,4.55
2022-12-27T04:55:26.926Z,4.28
2022-12-27T04:58:13.235Z,3.65
2022-12-27T05:01:14.148Z,3.75
2022-12-27T05:04:02.471Z,4.20
2022-12-27T05:06:46.290Z,4.47
2022-12-27T05:09:39.375Z,3.53
2022-12-27T05:12:39.674Z,3.63
2022-12-27T05:15:32.305Z,3.33
2022-12-27T05:18:18.861Z,3.78
2022-12-27T05:21:07.075Z,3.97
2022-12-27T05:24:06.019Z,4.13
2022-12-27T05:26:44.955Z,3.60
2022-12-27T05:29:30.913Z,3.70
2022-12-27T05:32:24.223Z,5.25
2022-12-27T05:35:01.961Z,4.85
2022-12-27T05:37:54.738Z,5.25
2022-12-27T05:40:31.007Z,5.78
2022-12-27T05:43:15.925Z,6.35
2022-12-27T05:46:01.553Z,6.43
2022-12-27T05:48:41.398Z,6.95
2022-12-27T05:51:24.860Z,8.20
2022-12-27T05:54:05.485Z,7.55
2022-12-27T05:56:41.345Z,6.18
2022-12-27T05:59:19.017Z,5.90
2022-12-27T06:01:54.486Z,7.05
2022-12-27T06:04:44.390Z,6.10
2022-12-27T06:07:22.622Z,5.88
2022-12-27T06:10:07.538Z,6.45
2022-12-27T06:12:48.897Z,6.03
2022-12-27T06:15:26.187Z,6.97
2022-12-27T06:18:17.908Z,6.55
2022-12-27T06:21:04.953Z,6.75
2022-12-27T06:23:49.368Z,7.70
2022-12-27T06:26:29.587Z,8.25
2022-12-27T06:29:11.714Z,7.50
2022-12-27T06:31:51.027Z,7.50
2022-12-27T06:34:29.813Z,8.52
2022-12-27T06:37:14.031Z,8.75
2022-12-27T06:39:54.130Z,8.43
2022-12-27T06:42:32.006Z,7.93
2022-12-27T06:45:12.900Z,7.70
2022-12-27T06:47:49.477Z,8.77
2022-12-27T06:50:36.663Z,8.10
2022-12-27T06:53:31.606Z,8.30
2022-12-27T06:56:18.463Z,8.57
2022-12-27T06:58:57.311Z,9.60
2022-12-27T07:01:43.980Z,11.05
2022-12-27T07:04:24.958Z,9.55
2022-12-27T07:07:15.879Z,10.45
2022-12-27T07:09:59.531Z,10.80
2022-12-27T07:12:39.487Z,9.70
2022-12-27T07:15:19.798Z,9.88
2022-12-27T07:18:00.451Z,9.32
2022-12-27T07:20:54.970Z,6.78
2022-12-27T07:23:58.210Z,7.25
2022-12-27T07:26:49.488Z,7.43
2022-12-27T07:29:33.395Z,7.65
2022-12-27T07:32:11.999Z,7.45
2022-12-27T07:34:52.414Z,7.93
2022-12-27T07:37:27.774Z,7.78
2022-12-27T07:40:08.376Z,8.57
2022-12-27T07:42:46.944Z,6.90
2022-12-27T07:45:22.234Z,6.32
2022-12-27T07:48:12.769Z,6.32
2022-12-27T07:51:01.903Z,5.72
2022-12-27T07:53:42.592Z,6.15
2022-12-27T07:56:26.649Z,5.13
2022-12-27T07:59:17.591Z,4.28
2022-12-27T08:02:08.013Z,4.53
2022-12-27T08:04:46.901Z,4.13
2022-12-27T08:07:28.894Z,3.53
2022-12-27T08:10:09.636Z,4.43
2022-12-27T08:12:47.951Z,4.38
2022-12-27T08:15:34.035Z,4.75
2022-12-27T08:18:12.168Z,4.38
2022-12-27T08:20:56.733Z,4.40
2022-12-27T08:23:46.573Z,4.43
2022-12-27T08:26:33.447Z,4.63
2022-12-27T08:29:11.311Z,3.20
2022-12-27T08:32:02.177Z,3.90
2022-12-27T08:34:40.147Z,4.70
2022-12-27T08:37:38.717Z,4.00
2022-12-27T08:40:18.202Z,3.72
2022-12-27T08:42:59.117Z,3.22
2022-12-27T08:45:43.498Z,3.45
2022-12-27T08:48:40.729Z,3.00
2022-12-27T08:51:34.392Z,2.78
2022-12-27T08:54:21.223Z,3.13
2022-12-27T08:56:59.926Z,3.03
2022-12-27T08:59:40.750Z,2.95
2022-12-27T09:02:29.018Z,2.83
2022-12-27T09:05:18.650Z,3.03
2022-12-27T09:07:58.747Z,2.67
2022-12-27T09:10:40.921Z,2.38
2022-12-27T09:13:16.135Z,2.53
2022-12-27T09:16:01.904Z,2.20
2022-12-27T09:18:48.435Z,3.00
2022-12-27T09:21:28.076Z,2.53
2022-12-27T09:24:08.396Z,2.30
2022-12-27T09:26:52.259Z,2.35
2022-12-27T09:29:32.903Z,3.00
2022-12-27T09:32:29.906Z,2.42
2022-12-27T09:35:16.198Z,2.55
2022-12-27T09:37:55.935Z,2.40
2022-12-27T09:40:37.479Z,2.10
2022-12-27T09:43:27.322Z,2.55
2022-12-27T09:46:09.118Z,2.30
2022-12-27T09:48:52.122Z,5.47
2022-12-27T09:51:57.600Z,2.65
2022-12-27T09:54:50.878Z,2.42
2022-12-27T09:57:34.206Z,3.75
2022-12-27T10:00:12.259Z,2.72
2022-12-27T10:02:58.940Z,2.33
2022-12-27T10:05:56.644Z,2.45
2022-12-27T10:08:56.554Z,2.58
2022-12-27T10:12:07.817Z,2.00
2022-12-27T10:15:08.588Z,2.50
2022-12-27T10:18:16.097Z,2.83
2022-12-27T10:21:29.249Z,2.75
2022-12-27T10:24:08.436Z,2.60
2022-12-27T10:26:50.597Z,2.38
2022-12-27T10:29:34.048Z,3.05
2022-12-27T10:35:00.255Z,2.95
2022-12-27T10:37:43.884Z,3.30
2022-12-27T10:40:34.351Z,2.83
2022-12-27T10:43:22.319Z,2.33
2022-12-27T10:46:28.936Z,2.47
2022-12-27T10:49:31.329Z,2.90
2022-12-27T10:52:20.836Z,2.28
2022-12-27T10:55:05.317Z,2.90
2022-12-27T10:57:51.834Z,2.03
2022-12-27T11:00:37.083Z,2.00
2022-12-27T11:03:26.331Z,2.72
2022-12-27T11:06:17.999Z,2.35
2022-12-27T11:09:03.314Z,2.58
2022-12-27T11:11:43.862Z,2.60
2022-12-27T11:14:29.906Z,2.97
2022-12-27T11:17:26.844Z,2.30
2022-12-27T11:20:32.881Z,3.00
2022-12-27T11:23:25.064Z,2.42
2022-12-27T11:26:20.066Z,2.72
2022-12-27T11:29:05.021Z,2.85
2022-12-27T11:31:48.632Z,2.45
2022-12-27T11:34:25.910Z,2.25
2022-12-27T11:37:23.920Z,2.75
2022-12-27T11:40:30.783Z,3.50
2022-12-27T11:43:24.927Z,3.20
2022-12-27T11:48:49.424Z,6.15
2022-12-27T11:52:02.176Z,13.10
2022-12-27T11:55:30.825Z,4.68
2022-12-27T11:58:28.418Z,5.97
2022-12-27T12:01:46.902Z,9.90
2022-12-27T12:04:59.599Z,8.30
2022-12-27T12:07:40.776Z,7.05
2022-12-27T12:10:46.331Z,7.15
2022-12-27T12:13:42.745Z,7.15
2022-12-27T12:16:52.009Z,5.78
2022-12-27T12:19:41.706Z,7.32
2022-12-27T12:23:08.760Z,7.25
2022-12-27T12:26:09.811Z,3.72
2022-12-27T12:32:53.509Z,4.97
2022-12-27T12:35:50.941Z,8.23
2022-12-27T12:38:40.888Z,6.82
2022-12-27T12:41:43.205Z,10.60
2022-12-27T12:44:47.014Z,3.13
2022-12-27T12:47:47.712Z,5.68
2022-12-27T12:50:33.213Z,10.40
2022-12-27T12:53:36.834Z,3.92
2022-12-27T12:56:28.174Z,3.83
2022-12-27T12:59:50.808Z,7.00
2022-12-27T13:02:46.728Z,7.55
2022-12-27T13:05:58.231Z,6.17
2022-12-27T13:08:59.748Z,6.30
2022-12-27T13:11:57.105Z,3.97
2022-12-27T13:14:55.287Z,3.47
2022-12-27T13:17:52.882Z,7.45
2022-12-27T13:20:53.854Z,4.38
2022-12-27T13:24:13.413Z,4.55
2022-12-27T13:27:18.450Z,14.32
2022-12-27T13:30:20.361Z,7.38
2022-12-27T13:33:25.227Z,20.73
2022-12-27T13:36:20.856Z,18.63
2022-12-27T13:39:15.492Z,12.85
2022-12-27T13:42:23.065Z,15.02
2022-12-27T13:45:36.637Z,26.25
2022-12-27T13:49:01.541Z,7.13
2022-12-27T13:52:02.394Z,5.85
2022-12-27T13:55:04.517Z,5.40
2022-12-27T13:58:12.453Z,5.05
2022-12-27T14:01:09.848Z,4.50
2022-12-27T14:04:05.639Z,13.77
2022-12-27T14:07:04.688Z,5.55
2022-12-27T14:10:16.394Z,19.30
2022-12-27T14:13:12.029Z,15.73
2022-12-27T14:16:30.536Z,7.97
2022-12-27T14:19:46.602Z,16.83
2022-12-27T14:23:18.179Z,9.15
2022-12-27T14:26:37.668Z,24.63
2022-12-27T14:29:37.137Z,12.80
2022-12-27T14:32:36.992Z,6.00
2022-12-27T14:35:42.210Z,6.20
2022-12-27T14:38:24.143Z,7.32
2022-12-27T14:41:42.922Z,9.02
2022-12-27T14:44:54.224Z,26.40
2022-12-27T14:47:42.753Z,33.53
2022-12-27T14:50:15.438Z,11.80
2022-12-27T14:53:21.858Z,16.90
2022-12-27T14:56:34.632Z,15.27
2022-12-27T14:59:52.857Z,23.42
2022-12-27T15:03:05.323Z,19.83
2022-12-27T15:06:20.525Z,9.23
2022-12-27T15:09:16.274Z,6.30
2022-12-27T15:12:24.578Z,5.82
2022-12-27T15:15:22.755Z,4.28
2022-12-27T15:18:23.143Z,6.30
2022-12-27T15:21:25.744Z,5.72
2022-12-27T15:24:02.683Z,6.40
2022-12-27T15:26:49.302Z,7.35
2022-12-27T15:29:42.347Z,6.95
2022-12-27T15:33:11.864Z,5.82
2022-12-27T15:35:55.231Z,6.97
2022-12-27T15:38:54.014Z,5.90
2022-12-27T15:41:51.655Z,5.22
2022-12-27T15:44:42.893Z,6.03
2022-12-27T15:47:43.581Z,4.97
2022-12-27T15:50:30.416Z,4.50
2022-12-27T15:53:29.741Z,4.30
2022-12-27T15:56:30.218Z,4.97
2022-12-27T15:59:51.903Z,4.45
2022-12-27T16:02:53.686Z,4.22
2022-12-27T16:05:52.445Z,4.63
2022-12-27T16:08:37.883Z,4.93
2022-12-27T16:11:20.131Z,10.23
2022-12-27T16:14:38.661Z,5.45
2022-12-27T16:17:36.153Z,5.75
2022-12-27T16:20:28.093Z,6.03
2022-12-27T16:23:08.223Z,5.63
2022-12-27T16:25:49.633Z,5.68
2022-12-27T16:28:39.486Z,6.75
2022-12-27T16:31:20.155Z,4.90
2022-12-27T16:33:55.093Z,5.20
2022-12-27T16:36:32.212Z,4.50
2022-12-27T16:39:35.993Z,5.22
2022-12-27T16:42:14.968Z,5.25
2022-12-27T16:45:29.944Z,6.78
2022-12-27T16:48:33.880Z,6.85
2022-12-27T16:51:16.915Z,7.15
2022-12-27T16:54:24.734Z,6.40
2022-12-27T16:57:33.136Z,6.47
2022-12-27T17:00:43.385Z,6.15
2022-12-27T17:03:28.530Z,5.70
2022-12-27T17:06:33.075Z,7.13
2022-12-27T17:09:21.539Z,7.25
2022-12-27T17:12:15.018Z,6.43
2022-12-27T17:15:07.726Z,8.00
2022-12-27T17:17:57.075Z,9.90
2022-12-27T17:20:35.633Z,8.40
2022-12-27T17:23:08.895Z,10.07
2022-12-27T17:26:00.793Z,11.88
2022-12-27T17:28:42.376Z,10.90
2022-12-27T17:32:11.061Z,11.23
2022-12-27T17:35:24.445Z,9.55
2022-12-27T17:38:25.559Z,8.52
2022-12-27T17:41:50.350Z,11.73
2022-12-27T17:44:59.196Z,12.73
2022-12-27T17:47:43.187Z,12.30
2022-12-27T17:50:24.230Z,11.23
2022-12-27T17:53:45.128Z,10.48
2022-12-27T17:56:41.571Z,14.88
2022-12-27T17:59:18.662Z,13.38
2022-12-27T18:02:33.483Z,12.75
2022-12-27T18:05:17.657Z,9.68
2022-12-27T18:08:08.611Z,11.20
2022-12-27T18:10:49.654Z,7.47
2022-12-27T18:13:33.950Z,8.73
2022-12-27T18:16:27.681Z,8.10
2022-12-27T18:19:06.658Z,15.77
2022-12-27T18:21:46.090Z,10.65
2022-12-27T18:24:44.761Z,9.40
2022-12-27T18:27:31.966Z,8.10
2022-12-27T18:30:10.504Z,8.43
2022-12-27T18:32:47.878Z,7.05
2022-12-27T18:35:29.773Z,8.10
2022-12-27T18:38:02.300Z,9.38
2022-12-27T18:40:38.944Z,9.07
2022-12-27T18:43:19.271Z,11.82
2022-12-27T18:46:09.557Z,10.70
2022-12-27T18:48:49.158Z,10.95
2022-12-27T18:51:39.868Z,15.40
2022-12-27T18:54:38.625Z,18.65
2022-12-27T18:57:35.290Z,15.02
2022-12-27T19:00:30.684Z,13.85
2022-12-27T19:03:21.830Z,12.25
2022-12-27T19:06:15.522Z,14.32
2022-12-27T19:09:01.982Z,13.90
2022-12-27T19:11:47.262Z,17.13
2022-12-27T19:14:25.935Z,26.02
2022-12-27T19:17:11.091Z,24.83
2022-12-27T19:19:54.278Z,25.58
2022-12-27T19:22:55.337Z,22.40
2022-12-27T19:25:37.520Z,42.10
2022-12-27T19:28:42.316Z,38.72
2022-12-27T19:31:32.208Z,38.55
2022-12-27T19:34:14.566Z,46.88
2022-12-27T19:36:54.350Z,49.65
2022-12-27T19:39:33.451Z,57.30
2022-12-27T19:42:16.107Z,58.60
2022-12-27T19:44:58.707Z,55.45
2022-12-27T19:47:41.340Z,55.72
2022-12-27T19:50:20.667Z,46.78
2022-12-27T19:53:03.494Z,45.10
2022-12-27T19:55:41.714Z,34.87
2022-12-27T19:58:27.410Z,30.38
2022-12-27T20:01:08.883Z,34.70
2022-12-27T20:03:46.747Z,36.33
2022-12-27T20:06:28.481Z,37.95
2022-12-27T20:09:06.246Z,35.78
2022-12-27T20:11:49.686Z,36.13
2022-12-27T20:14:41.139Z,40.95
2022-12-27T20:17:24.560Z,50.50
2022-12-27T20:20:05.330Z,55.10
2022-12-27T20:23:04.156Z,61.10
2022-12-27T20:25:50.882Z,52.63
2022-12-27T20:28:31.524Z,42.03
2022-12-27T20:31:22.937Z,37.20
2022-12-27T20:34:06.767Z,30.98
2022-12-27T20:36:44.818Z,29.40
2022-12-27T20:39:25.219Z,28.40
2022-12-27T20:42:03.601Z,32.78
2022-12-27T20:44:42.262Z,36.72
2022-12-27T20:47:31.635Z,36.55
2022-12-27T20:50:04.518Z,30.70
2022-12-27T20:52:50.917Z,28.67
2022-12-27T20:55:27.107Z,36.30
2022-12-27T20:58:09.091Z,41.47
2022-12-27T21:00:56.810Z,42.72
2022-12-27T21:03:40.328Z,49.28
2022-12-27T21:06:28.544Z,43.03
2022-12-27T21:09:09.950Z,39.58
2022-12-27T21:11:50.815Z,53.65
2022-12-27T21:14:41.854Z,54.80
2022-12-27T21:17:19.359Z,43.45
2022-12-27T21:20:11.217Z,57.85
2022-12-27T21:22:53.371Z,55.08
2022-12-27T21:25:34.611Z,56.65
2022-12-27T21:28:15.100Z,42.10
2022-12-27T21:31:03.640Z,38.53
2022-12-27T21:33:40.850Z,64.07
2022-12-27T21:36:24.622Z,68.50
2022-12-27T21:39:05.236Z,65.93
2022-12-27T21:41:56.601Z,57.25
2022-12-27T21:44:39.022Z,50.80
2022-12-27T21:47:22.705Z,46.92
2022-12-27T21:52:38.343Z,44.28
2022-12-27T21:55:13.901Z,55.80
2022-12-27T21:57:57.201Z,55.03
2022-12-27T22:00:35.306Z,46.20
2022-12-27T22:03:10.871Z,42.30
2022-12-27T22:05:46.873Z,37.47
2022-12-27T22:08:23.416Z,34.13
2022-12-27T22:11:04.049Z,32.92
2022-12-27T22:13:44.367Z,34.40
2022-12-27T22:16:29.027Z,31.10
2022-12-27T22:19:04.396Z,28.85
2022-12-27T22:21:50.028Z,27.63
2022-12-27T22:24:30.404Z,31.15
2022-12-27T22:27:18.541Z,35.72
2022-12-27T22:29:53.792Z,33.28
2022-12-27T22:32:40.313Z,36.67
2022-12-27T22:35:18.736Z,37.75
2022-12-27T22:37:54.322Z,37.15
2022-12-27T22:40:45.793Z,37.22
2022-12-27T22:43:33.800Z,33.00
2022-12-27T22:46:27.353Z,33.35
2022-12-27T22:49:11.741Z,28.83
2022-12-27T22:51:53.617Z,28.38
2022-12-27T22:55:05.515Z,26.17
2022-12-27T22:57:32.568Z,26.65
2022-12-27T23:00:16.741Z,27.58
2022-12-27T23:02:55.485Z,25.90
2022-12-27T23:05:33.071Z,26.67
2022-12-27T23:08:11.092Z,25.83
2022-12-27T23:10:53.250Z,24.55
2022-12-27T23:13:37.362Z,24.00
2022-12-27T23:16:28.213Z,24.50
2022-12-27T23:19:05.575Z,23.92
2022-12-27T23:22:01.597Z,23.83
2022-12-27T23:24:47.086Z,23.88
2022-12-27T23:27:36.513Z,21.92
2022-12-27T23:30:17.222Z,22.10
2022-12-27T23:32:54.750Z,19.90
2022-12-27T23:35:35.163Z,20.23
2022-12-27T23:38:21.838Z,19.42
2022-12-27T23:41:04.675Z,21.77
2022-12-27T23:43:53.927Z,24.85
2022-12-27T23:46:39.850Z,23.13
2022-12-27T23:49:17.663Z,27.90
2022-12-27T23:51:55.362Z,40.33
2022-12-27T23:54:35.330Z,40.03
2022-12-27T23:57:22.388Z,36.72
